Old Milo, Arkansas
Current Conditions -  °F | °C
As of 2:15 PM on Friday 19 Dec 2014 (Local Time) from KBQP Reporting Station
Moderate Rain Moderate Rain  
Wind Chill: 45°   Ceiling: Unl
Heat Index: 45°   Visibility: 4mi
Dew Point: 44°   Wind: 3mph
Humidity: 96%   Direction: 60°ENE
Pressure: 30.17"   Gusts: NA
Location:  33.1762°N, 91.7595°W
Report Text: KBQP 192015Z AUTO 06003KT 4SM RA SCT005 SCT038 07/07 A3017 RMK AO2 P0002 T00720066
Loading
Personal Weather Stations






























Interactive Weather Map New forecast layout! Learn more

10-Day Weather Forecast

Advertisements
Track Severe Weather on mobile